createdAt,value
2023-04-30T00:00:16.321Z,10.92
2023-04-30T00:01:13.066Z,10.97
2023-04-30T00:02:09.771Z,11.26
2023-04-30T00:03:06.766Z,11.52
2023-04-30T00:04:04.031Z,11.74
2023-04-30T00:05:01.004Z,11.39
2023-04-30T00:05:57.876Z,11.52
2023-04-30T00:06:55.789Z,10.68
2023-04-30T00:07:52.612Z,11.26
2023-04-30T00:08:49.400Z,11.04
2023-04-30T00:09:46.565Z,11.05
2023-04-30T00:10:43.336Z,10.93
2023-04-30T00:11:40.071Z,10.69
2023-04-30T00:12:37.413Z,10.73
2023-04-30T00:13:34.697Z,10.79
2023-04-30T00:14:31.496Z,8.28
2023-04-30T00:15:28.177Z,10.42
2023-04-30T00:16:25.061Z,10.71
2023-04-30T00:17:22.114Z,9.87
2023-04-30T00:18:18.947Z,9.76
2023-04-30T00:19:15.890Z,8.13
2023-04-30T00:20:13.166Z,9.35
2023-04-30T00:21:10.278Z,10.06
2023-04-30T00:22:07.148Z,8.17
2023-04-30T00:23:04.046Z,10.75
2023-04-30T00:24:00.883Z,10.80
2023-04-30T00:24:57.684Z,10.87
2023-04-30T00:25:54.494Z,9.82
2023-04-30T00:26:51.279Z,10.32
2023-04-30T00:27:48.022Z,9.41
2023-04-30T00:28:44.740Z,9.21
2023-04-30T00:29:41.640Z,10.38
2023-04-30T00:30:38.342Z,10.62
2023-04-30T00:31:35.175Z,9.93
2023-04-30T00:32:32.008Z,10.35
2023-04-30T00:33:28.760Z,10.22
2023-04-30T00:34:25.650Z,10.65
2023-04-30T00:35:22.489Z,9.92
2023-04-30T00:36:19.322Z,10.65
2023-04-30T00:37:16.029Z,10.07
2023-04-30T00:38:12.986Z,10.52
2023-04-30T00:39:10.027Z,9.45
2023-04-30T00:40:07.838Z,10.22
2023-04-30T00:41:04.902Z,9.75
2023-04-30T00:42:02.771Z,10.23
2023-04-30T00:42:59.624Z,10.38
2023-04-30T00:43:56.491Z,10.28
2023-04-30T00:44:53.262Z,10.17
2023-04-30T00:45:50.085Z,9.83
2023-04-30T00:46:46.933Z,9.35
2023-04-30T00:47:43.771Z,10.45
2023-04-30T00:48:40.805Z,10.03
2023-04-30T00:49:37.733Z,10.60
2023-04-30T00:50:37.022Z,10.39
2023-04-30T00:51:36.037Z,10.59
2023-04-30T00:52:33.034Z,9.73
2023-04-30T00:53:29.825Z,10.14
2023-04-30T00:54:26.991Z,10.53
2023-04-30T00:55:23.854Z,9.62
2023-04-30T00:56:21.244Z,10.49
2023-04-30T00:57:18.158Z,9.98
2023-04-30T00:58:15.418Z,9.07
2023-04-30T00:59:13.515Z,10.36
2023-04-30T01:00:11.216Z,9.94
2023-04-30T01:01:08.643Z,10.75
2023-04-30T01:02:05.523Z,10.85
2023-04-30T01:03:02.852Z,8.64
2023-04-30T01:04:01.077Z,11.25
2023-04-30T01:04:57.998Z,10.52
2023-04-30T01:05:54.896Z,10.53
2023-04-30T01:06:52.075Z,11.19
2023-04-30T01:07:50.700Z,11.37
2023-04-30T01:08:48.568Z,10.00
2023-04-30T01:09:45.711Z,9.59
2023-04-30T01:10:53.906Z,11.73
2023-04-30T01:12:03.643Z,11.62
2023-04-30T01:13:08.939Z,11.74
2023-04-30T01:14:33.780Z,11.64
2023-04-30T01:15:51.709Z,11.38
2023-04-30T01:17:13.298Z,11.66
2023-04-30T01:18:39.265Z,10.49
2023-04-30T01:19:44.334Z,11.62
2023-04-30T01:20:50.799Z,11.49
2023-04-30T01:21:49.407Z,11.21
2023-04-30T01:22:52.205Z,11.72
2023-04-30T01:24:05.962Z,11.55
2023-04-30T01:25:30.264Z,11.57
2023-04-30T01:26:59.430Z,11.46
2023-04-30T01:28:09.465Z,11.48
2023-04-30T01:29:08.409Z,11.31
2023-04-30T01:30:06.554Z,11.47
2023-04-30T01:31:03.320Z,10.58
2023-04-30T01:32:00.452Z,11.43
2023-04-30T01:32:57.409Z,9.78
2023-04-30T01:33:54.160Z,9.07
2023-04-30T01:34:50.865Z,11.21
2023-04-30T01:36:00.004Z,11.01
2023-04-30T01:36:59.729Z,11.22
2023-04-30T01:38:18.002Z,10.90
2023-04-30T01:39:42.470Z,10.75
2023-04-30T01:40:48.065Z,10.78
2023-04-30T01:41:44.809Z,11.25
2023-04-30T01:42:53.694Z,11.24
2023-04-30T01:44:18.544Z,9.41
2023-04-30T01:45:27.134Z,10.75
2023-04-30T01:46:30.541Z,10.46
2023-04-30T01:47:48.667Z,10.44
2023-04-30T01:48:54.759Z,10.76
2023-04-30T01:50:01.658Z,10.77
2023-04-30T01:51:21.720Z,10.27
2023-04-30T01:52:26.545Z,9.70
2023-04-30T01:53:44.645Z,9.77
2023-04-30T01:55:09.034Z,11.16
2023-04-30T01:56:10.292Z,10.39
2023-04-30T01:57:25.688Z,11.22
2023-04-30T01:58:24.995Z,9.38
2023-04-30T01:59:23.721Z,10.65
2023-04-30T02:00:20.565Z,10.50
2023-04-30T02:01:32.558Z,11.35
2023-04-30T02:02:29.612Z,8.60
2023-04-30T02:03:26.376Z,10.67
2023-04-30T02:04:23.203Z,11.17
2023-04-30T02:05:20.039Z,10.61
2023-04-30T02:06:16.804Z,10.06
2023-04-30T02:07:33.620Z,10.67
2023-04-30T02:08:31.511Z,10.58
2023-04-30T02:09:28.287Z,10.31
2023-04-30T02:10:27.031Z,10.61
2023-04-30T02:11:26.853Z,10.37
2023-04-30T02:12:23.712Z,10.98
2023-04-30T02:13:20.432Z,9.82
2023-04-30T02:14:17.354Z,9.76
2023-04-30T02:15:14.373Z,8.32
2023-04-30T02:16:11.639Z,10.34
2023-04-30T02:17:08.451Z,8.69
2023-04-30T02:18:05.188Z,10.32
2023-04-30T02:19:02.547Z,10.38
2023-04-30T02:19:59.992Z,10.21
2023-04-30T02:20:56.720Z,10.04
2023-04-30T02:21:53.555Z,10.01
2023-04-30T02:22:51.660Z,9.43
2023-04-30T02:23:48.432Z,10.51
2023-04-30T02:24:45.156Z,11.04
2023-04-30T02:25:41.907Z,10.23
2023-04-30T02:26:38.736Z,10.55
2023-04-30T02:27:35.534Z,11.02
2023-04-30T02:28:32.286Z,10.91
2023-04-30T02:29:29.301Z,10.99
2023-04-30T02:30:26.027Z,10.24
2023-04-30T02:31:22.796Z,9.92
2023-04-30T02:32:19.909Z,10.60
2023-04-30T02:33:16.887Z,10.62
2023-04-30T02:34:13.652Z,8.73
2023-04-30T02:35:10.680Z,10.57
2023-04-30T02:36:10.241Z,10.40
2023-04-30T02:37:07.845Z,9.35
2023-04-30T02:38:04.659Z,10.06
2023-04-30T02:39:01.489Z,10.46
2023-04-30T02:39:58.334Z,10.63
2023-04-30T02:40:55.080Z,10.40
2023-04-30T02:41:51.838Z,9.64
2023-04-30T02:42:48.637Z,7.91
2023-04-30T02:43:45.527Z,10.62
2023-04-30T02:44:42.636Z,10.75
2023-04-30T02:45:39.509Z,10.71
2023-04-30T02:46:36.448Z,10.37
2023-04-30T02:47:33.165Z,10.58
2023-04-30T02:48:29.889Z,8.48
2023-04-30T02:49:26.979Z,10.43
2023-04-30T02:50:23.792Z,10.78
2023-04-30T02:51:20.773Z,9.87
2023-04-30T02:52:18.306Z,10.03
2023-04-30T02:53:15.134Z,10.52
2023-04-30T02:54:12.006Z,10.57
2023-04-30T02:55:09.024Z,10.58
2023-04-30T02:56:06.296Z,10.72
2023-04-30T02:57:03.532Z,9.83
2023-04-30T02:58:00.362Z,10.78
2023-04-30T02:58:57.324Z,11.17
2023-04-30T02:59:54.551Z,11.15
2023-04-30T03:00:51.512Z,11.14
2023-04-30T03:01:48.368Z,9.79
2023-04-30T03:02:45.334Z,11.32
2023-04-30T03:03:42.207Z,11.26
2023-04-30T03:04:39.169Z,9.58
2023-04-30T03:05:36.143Z,10.52
2023-04-30T03:06:33.865Z,10.16
2023-04-30T03:07:30.808Z,10.47
2023-04-30T03:08:27.903Z,10.52
2023-04-30T03:09:24.732Z,10.14
2023-04-30T03:10:21.586Z,10.68
2023-04-30T03:11:18.406Z,10.65
2023-04-30T03:12:15.199Z,10.09
2023-04-30T03:13:12.013Z,10.00
2023-04-30T03:14:08.886Z,10.85
2023-04-30T03:15:06.402Z,10.64
2023-04-30T03:16:06.973Z,10.61
2023-04-30T03:17:03.821Z,9.76
2023-04-30T03:18:00.775Z,10.01
2023-04-30T03:18:57.528Z,9.75
2023-04-30T03:19:54.545Z,10.68
2023-04-30T03:20:51.468Z,10.51
2023-04-30T03:21:48.254Z,8.45
2023-04-30T03:22:45.008Z,10.69
2023-04-30T03:23:41.916Z,10.66
2023-04-30T03:24:38.763Z,11.37
2023-04-30T03:25:35.642Z,10.25
2023-04-30T03:26:32.604Z,10.97
2023-04-30T03:27:29.375Z,10.01
2023-04-30T03:28:26.182Z,10.25
2023-04-30T03:29:23.076Z,9.86
2023-04-30T03:30:19.949Z,10.32
2023-04-30T03:31:17.025Z,10.56
2023-04-30T03:32:13.773Z,10.05
2023-04-30T03:33:10.655Z,10.81
2023-04-30T03:34:10.661Z,10.52
2023-04-30T03:35:10.446Z,10.64
2023-04-30T03:36:07.709Z,10.01
2023-04-30T03:37:04.458Z,10.89
2023-04-30T03:38:02.061Z,9.12
2023-04-30T03:38:58.808Z,10.56
2023-04-30T03:39:55.900Z,10.39
2023-04-30T03:40:52.917Z,11.01
2023-04-30T03:41:49.718Z,11.35
2023-04-30T03:42:47.449Z,11.37
2023-04-30T03:43:45.009Z,9.29
2023-04-30T03:44:41.969Z,11.32
2023-04-30T03:45:39.117Z,10.64
2023-04-30T03:46:35.971Z,8.56
2023-04-30T03:47:33.176Z,10.73
2023-04-30T03:48:29.904Z,11.25
2023-04-30T03:49:26.739Z,9.29
2023-04-30T03:50:23.489Z,8.87
2023-04-30T03:51:23.186Z,10.38
2023-04-30T03:52:19.940Z,10.71
2023-04-30T03:53:16.710Z,10.11
2023-04-30T03:54:13.513Z,10.41
2023-04-30T03:55:11.787Z,10.98
2023-04-30T03:56:08.813Z,10.24
2023-04-30T03:57:07.779Z,10.33
2023-04-30T03:58:05.021Z,11.34
2023-04-30T03:59:02.362Z,11.16
2023-04-30T03:59:59.647Z,11.33
2023-04-30T04:00:56.597Z,11.65
2023-04-30T04:01:56.446Z,11.03
2023-04-30T04:02:53.566Z,11.15
2023-04-30T04:03:50.651Z,10.88
2023-04-30T04:04:48.085Z,10.41
2023-04-30T04:05:45.030Z,11.58
2023-04-30T04:06:41.876Z,9.05
2023-04-30T04:07:38.718Z,10.73
2023-04-30T04:08:36.782Z,11.46
2023-04-30T04:09:33.541Z,10.55
2023-04-30T04:10:30.402Z,11.05
2023-04-30T04:11:27.172Z,11.83
2023-04-30T04:12:24.067Z,11.57
2023-04-30T04:13:20.972Z,10.98
2023-04-30T04:14:17.704Z,11.44
2023-04-30T04:15:14.469Z,10.30
2023-04-30T04:16:11.370Z,11.58
2023-04-30T04:17:08.368Z,11.21
2023-04-30T04:18:07.066Z,10.00
2023-04-30T04:19:04.543Z,10.93
2023-04-30T04:20:01.290Z,11.79
2023-04-30T04:20:58.116Z,10.81
2023-04-30T04:21:54.933Z,11.44
2023-04-30T04:22:51.752Z,11.50
2023-04-30T04:23:48.507Z,10.01
2023-04-30T04:24:45.792Z,11.14
2023-04-30T04:25:44.390Z,10.03
2023-04-30T04:26:46.654Z,11.48
2023-04-30T04:27:45.027Z,11.35
2023-04-30T04:28:42.241Z,8.92
2023-04-30T04:29:39.049Z,11.31
2023-04-30T04:30:36.758Z,10.27
2023-04-30T04:31:33.590Z,10.29
2023-04-30T04:32:30.738Z,10.76
2023-04-30T04:33:27.942Z,10.79
2023-04-30T04:34:24.803Z,11.85
2023-04-30T04:35:21.767Z,12.53
2023-04-30T04:36:18.568Z,11.73
2023-04-30T04:37:15.955Z,10.94
2023-04-30T04:38:15.773Z,11.93
2023-04-30T04:39:14.858Z,11.31
2023-04-30T04:40:12.452Z,11.79
2023-04-30T04:41:09.286Z,11.92
2023-04-30T04:42:06.271Z,11.57
2023-04-30T04:43:03.141Z,10.64
2023-04-30T04:44:01.938Z,11.37
2023-04-30T04:44:58.706Z,10.27
2023-04-30T04:45:55.523Z,11.66
2023-04-30T04:46:54.015Z,11.83
2023-04-30T04:47:50.981Z,11.12
2023-04-30T04:48:47.811Z,11.67
2023-04-30T04:49:44.639Z,12.21
2023-04-30T04:50:41.699Z,11.70
2023-04-30T04:51:39.657Z,11.66
2023-04-30T04:52:36.637Z,12.11
2023-04-30T04:53:34.896Z,11.46
2023-04-30T04:54:31.950Z,11.41
2023-04-30T04:55:28.649Z,11.39
2023-04-30T04:56:25.524Z,12.27
2023-04-30T04:57:22.441Z,12.25
2023-04-30T04:58:19.279Z,11.57
2023-04-30T04:59:17.555Z,11.60
2023-04-30T05:00:14.678Z,12.42
2023-04-30T05:01:11.646Z,11.71
2023-04-30T05:02:08.470Z,12.41
2023-04-30T05:03:05.496Z,12.51
2023-04-30T05:04:02.518Z,12.36
2023-04-30T05:04:59.522Z,10.40
2023-04-30T05:05:56.621Z,11.58
2023-04-30T05:06:54.707Z,11.81
2023-04-30T05:07:52.689Z,11.08
2023-04-30T05:08:49.602Z,9.95
2023-04-30T05:09:47.241Z,11.96
2023-04-30T05:10:44.137Z,12.00
2023-04-30T05:11:41.744Z,12.29
2023-04-30T05:12:38.690Z,12.32
2023-04-30T05:13:35.530Z,12.26
2023-04-30T05:14:32.385Z,11.70
2023-04-30T05:15:29.436Z,12.01
2023-04-30T05:16:26.838Z,11.32
2023-04-30T05:17:23.723Z,11.90
2023-04-30T05:18:20.864Z,12.00
2023-04-30T05:19:17.670Z,12.07
2023-04-30T05:20:14.497Z,11.99
2023-04-30T05:21:11.278Z,10.90
2023-04-30T05:22:08.069Z,10.99
2023-04-30T05:23:04.981Z,11.57
2023-04-30T05:24:03.449Z,12.00
2023-04-30T05:25:00.401Z,12.16
2023-04-30T05:25:57.288Z,11.97
2023-04-30T05:26:54.143Z,10.14
2023-04-30T05:27:51.513Z,11.79
2023-04-30T05:28:48.318Z,12.26
2023-04-30T05:29:45.200Z,13.03
2023-04-30T05:30:42.025Z,12.05
2023-04-30T05:31:39.011Z,11.72
2023-04-30T05:32:35.921Z,12.76
2023-04-30T05:33:32.694Z,11.43
2023-04-30T05:34:29.464Z,11.91
2023-04-30T05:35:26.250Z,12.81
2023-04-30T05:36:23.035Z,12.79
2023-04-30T05:37:20.697Z,11.83
2023-04-30T05:38:17.549Z,10.95
2023-04-30T05:39:14.442Z,11.31
2023-04-30T05:40:12.518Z,11.62
2023-04-30T05:41:12.403Z,12.09
2023-04-30T05:42:09.234Z,11.76
2023-04-30T05:43:06.038Z,11.87
2023-04-30T05:44:04.988Z,12.53
2023-04-30T05:45:02.947Z,12.36
2023-04-30T05:45:59.723Z,11.41
2023-04-30T05:46:56.546Z,10.98
2023-04-30T05:47:53.563Z,12.22
2023-04-30T05:48:50.400Z,12.30
2023-04-30T05:49:47.245Z,12.50
2023-04-30T05:50:44.047Z,12.67
2023-04-30T05:51:40.876Z,11.45
2023-04-30T05:52:37.672Z,12.56
2023-04-30T05:53:34.484Z,11.71
2023-04-30T05:54:31.468Z,11.87
2023-04-30T05:55:28.293Z,12.16
2023-04-30T05:56:25.459Z,12.63
2023-04-30T05:57:22.271Z,12.16
2023-04-30T05:58:19.200Z,12.54
2023-04-30T05:59:15.974Z,12.82
2023-04-30T06:00:13.690Z,13.00
2023-04-30T06:01:11.247Z,13.18
2023-04-30T06:02:08.303Z,12.60
2023-04-30T06:03:05.120Z,12.28
2023-04-30T06:04:01.963Z,12.83
2023-04-30T06:04:58.738Z,12.63
2023-04-30T06:05:55.668Z,12.53
2023-04-30T06:06:52.448Z,11.96
2023-04-30T06:07:49.291Z,12.20
2023-04-30T06:08:46.082Z,12.92
2023-04-30T06:09:42.955Z,12.79
2023-04-30T06:10:40.125Z,12.74
2023-04-30T06:11:42.299Z,12.06
2023-04-30T06:12:39.977Z,12.59
2023-04-30T06:13:37.006Z,11.23
2023-04-30T06:14:33.815Z,12.32
2023-04-30T06:15:30.737Z,11.56
2023-04-30T06:16:27.974Z,12.48
2023-04-30T06:17:24.856Z,12.94
2023-04-30T06:18:21.592Z,13.26
2023-04-30T06:19:18.353Z,13.47
2023-04-30T06:20:15.951Z,12.70
2023-04-30T06:21:12.794Z,12.16
2023-04-30T06:22:09.599Z,12.86
2023-04-30T06:23:07.046Z,13.04
2023-04-30T06:24:03.962Z,13.10
2023-04-30T06:25:01.072Z,13.06
2023-04-30T06:25:57.846Z,13.30
2023-04-30T06:26:54.601Z,13.15
2023-04-30T06:27:54.130Z,13.09
2023-04-30T06:28:51.004Z,13.23
2023-04-30T06:29:47.752Z,11.41
2023-04-30T06:30:44.671Z,12.93
2023-04-30T06:31:41.405Z,13.18
2023-04-30T06:32:38.163Z,13.31
2023-04-30T06:33:35.057Z,13.42
2023-04-30T06:34:32.459Z,12.29
2023-04-30T06:35:29.237Z,11.77
2023-04-30T06:36:25.943Z,12.34
2023-04-30T06:37:22.855Z,12.31
2023-04-30T06:38:19.617Z,12.92
2023-04-30T06:39:17.119Z,12.66
2023-04-30T06:40:13.947Z,13.13
2023-04-30T06:41:10.729Z,12.74
2023-04-30T06:42:07.501Z,13.84
2023-04-30T06:43:04.283Z,13.22
2023-04-30T06:44:01.070Z,12.92
2023-04-30T06:44:57.827Z,14.34
2023-04-30T06:45:54.706Z,13.13
2023-04-30T06:46:51.500Z,13.74
2023-04-30T06:47:48.464Z,14.00
2023-04-30T06:48:45.369Z,13.00
2023-04-30T06:49:42.291Z,13.13
2023-04-30T06:50:44.946Z,10.97
2023-04-30T06:51:42.805Z,14.13
2023-04-30T06:52:39.593Z,13.37
2023-04-30T06:53:36.670Z,13.71
2023-04-30T06:54:33.387Z,14.51
2023-04-30T06:55:30.357Z,14.71
2023-04-30T06:56:27.234Z,14.50
2023-04-30T06:57:24.821Z,14.46
2023-04-30T06:58:21.653Z,14.32
2023-04-30T06:59:18.644Z,14.77
2023-04-30T07:00:15.600Z,13.22
2023-04-30T07:01:12.425Z,14.53
2023-04-30T07:02:09.281Z,14.78
2023-04-30T07:03:06.767Z,14.55
2023-04-30T07:04:03.650Z,14.08
2023-04-30T07:05:00.592Z,14.91
2023-04-30T07:05:57.648Z,14.86
2023-04-30T07:06:54.545Z,14.70
2023-04-30T07:07:51.432Z,14.53
2023-04-30T07:08:48.610Z,13.81
2023-04-30T07:09:45.408Z,14.66
2023-04-30T07:10:42.156Z,14.30
2023-04-30T07:11:40.033Z,14.22
2023-04-30T07:12:36.838Z,13.81
2023-04-30T07:13:33.880Z,12.34
2023-04-30T07:14:30.804Z,14.59
2023-04-30T07:15:27.552Z,13.56
2023-04-30T07:16:28.041Z,13.47
2023-04-30T07:17:27.511Z,14.86
2023-04-30T07:18:24.534Z,14.21
2023-04-30T07:19:21.389Z,14.63
2023-04-30T07:20:18.400Z,13.14
2023-04-30T07:21:17.348Z,13.63
2023-04-30T07:22:14.221Z,14.14
2023-04-30T07:23:11.019Z,15.12
2023-04-30T07:24:07.928Z,15.22
2023-04-30T07:25:06.101Z,14.98
2023-04-30T07:26:02.994Z,14.65
2023-04-30T07:27:02.904Z,14.68
2023-04-30T07:27:59.829Z,14.81
2023-04-30T07:28:58.689Z,14.54
2023-04-30T07:29:56.324Z,14.87
2023-04-30T07:30:53.529Z,15.37
2023-04-30T07:31:50.752Z,15.50
2023-04-30T07:32:47.876Z,14.94
2023-04-30T07:33:45.143Z,15.40
2023-04-30T07:34:42.184Z,13.73
2023-04-30T07:35:39.155Z,13.43
2023-04-30T07:36:36.035Z,15.43
2023-04-30T07:37:35.052Z,15.58
2023-04-30T07:38:33.345Z,15.35
2023-04-30T07:39:31.140Z,15.22
2023-04-30T07:40:35.809Z,15.74
2023-04-30T07:41:33.216Z,15.27
2023-04-30T07:42:29.963Z,15.31
2023-04-30T07:43:26.706Z,15.59
2023-04-30T07:44:23.599Z,14.43
2023-04-30T07:45:20.887Z,15.94
2023-04-30T07:46:17.894Z,15.22
2023-04-30T07:47:14.942Z,15.69
2023-04-30T07:48:11.765Z,15.71
2023-04-30T07:49:08.478Z,15.82
2023-04-30T07:50:06.287Z,15.42
2023-04-30T07:51:04.893Z,15.64
2023-04-30T07:52:01.926Z,15.99
2023-04-30T07:52:58.695Z,15.20
2023-04-30T07:53:55.668Z,15.34
2023-04-30T07:54:52.432Z,15.53
2023-04-30T07:55:49.604Z,16.03
2023-04-30T07:56:48.814Z,16.24
2023-04-30T07:57:45.817Z,16.12
2023-04-30T07:58:42.692Z,15.56
2023-04-30T07:59:39.495Z,16.11
2023-04-30T08:00:36.583Z,16.31
2023-04-30T08:01:33.649Z,15.24
2023-04-30T08:02:30.843Z,16.25
2023-04-30T08:03:27.885Z,16.49
2023-04-30T08:04:25.078Z,16.20
2023-04-30T08:05:21.903Z,15.37
2023-04-30T08:06:19.329Z,16.15
2023-04-30T08:07:17.207Z,14.99
2023-04-30T08:08:14.052Z,15.05
2023-04-30T08:09:11.063Z,15.69
2023-04-30T08:10:08.202Z,16.35
2023-04-30T08:11:05.196Z,16.66
2023-04-30T08:12:02.113Z,16.37
2023-04-30T08:12:58.928Z,15.00
2023-04-30T08:13:55.784Z,15.94
2023-04-30T08:15:03.450Z,16.37
2023-04-30T08:16:00.402Z,16.71
2023-04-30T08:16:59.485Z,16.03
2023-04-30T08:17:56.453Z,16.97
2023-04-30T08:18:53.280Z,16.07
2023-04-30T08:19:50.348Z,15.74
2023-04-30T08:20:47.251Z,16.54
2023-04-30T08:21:44.208Z,16.46
2023-04-30T08:22:40.855Z,17.01
2023-04-30T08:23:37.565Z,16.98
2023-04-30T08:24:34.322Z,15.50
2023-04-30T08:25:31.887Z,15.16
2023-04-30T08:26:28.675Z,16.45
2023-04-30T08:27:25.538Z,16.69
2023-04-30T08:28:22.485Z,17.33
2023-04-30T08:29:19.259Z,16.95
2023-04-30T08:30:16.303Z,17.01
2023-04-30T08:31:13.346Z,17.24
2023-04-30T08:32:10.363Z,16.25
2023-04-30T08:33:07.313Z,16.93
2023-04-30T08:34:04.108Z,16.42
2023-04-30T08:35:00.951Z,16.44
2023-04-30T08:35:57.894Z,17.38
2023-04-30T08:36:54.641Z,17.51
2023-04-30T08:37:51.504Z,17.46
2023-04-30T08:38:48.181Z,16.94
2023-04-30T08:39:44.960Z,17.02
2023-04-30T08:40:52.677Z,16.39
2023-04-30T08:41:56.091Z,17.06
2023-04-30T08:43:20.241Z,18.03
2023-04-30T08:44:20.699Z,17.68
2023-04-30T08:45:19.910Z,17.21
2023-04-30T08:46:18.002Z,17.63
2023-04-30T08:47:17.118Z,17.54
2023-04-30T08:48:23.652Z,18.22
2023-04-30T08:49:25.373Z,17.43
2023-04-30T08:50:22.157Z,18.26
2023-04-30T08:51:22.301Z,17.66
2023-04-30T08:52:19.721Z,18.16
2023-04-30T08:53:19.129Z,18.11
2023-04-30T08:54:20.770Z,18.52
2023-04-30T08:55:17.587Z,18.66
2023-04-30T08:56:15.389Z,18.20
2023-04-30T08:57:12.137Z,17.66
2023-04-30T08:58:13.663Z,17.12
2023-04-30T08:59:13.381Z,15.22
2023-04-30T09:00:13.651Z,17.31
2023-04-30T09:01:12.370Z,17.01
2023-04-30T09:02:11.660Z,15.73
2023-04-30T09:03:09.071Z,17.80
2023-04-30T09:04:09.983Z,17.80
2023-04-30T09:05:12.087Z,17.06
2023-04-30T09:06:09.150Z,16.61
2023-04-30T09:07:09.698Z,15.66
2023-04-30T09:08:09.632Z,18.04
2023-04-30T09:09:14.336Z,17.83
2023-04-30T09:10:32.838Z,17.58
2023-04-30T09:11:31.625Z,17.11
2023-04-30T09:12:28.656Z,18.41
2023-04-30T09:13:25.382Z,18.17
2023-04-30T09:14:28.629Z,18.40
2023-04-30T09:15:26.159Z,18.60
2023-04-30T09:16:24.588Z,18.47
2023-04-30T09:17:25.785Z,19.68
2023-04-30T09:18:25.772Z,19.81
2023-04-30T09:19:28.664Z,19.69
2023-04-30T09:20:26.356Z,19.19
2023-04-30T09:21:35.947Z,18.52
2023-04-30T09:22:32.742Z,18.21
2023-04-30T09:23:30.540Z,17.14
2023-04-30T09:24:27.865Z,18.16
2023-04-30T09:25:42.386Z,17.84
2023-04-30T09:26:39.150Z,18.70
2023-04-30T09:27:39.013Z,18.73
2023-04-30T09:28:36.918Z,18.49
2023-04-30T09:29:41.295Z,18.64
2023-04-30T09:30:39.184Z,18.61
2023-04-30T09:31:37.897Z,17.82
2023-04-30T09:32:34.820Z,18.17
2023-04-30T09:33:49.734Z,18.70
2023-04-30T09:34:46.492Z,18.77
2023-04-30T09:35:46.807Z,16.65
2023-04-30T09:36:55.968Z,18.43
2023-04-30T09:37:52.830Z,18.82
2023-04-30T09:38:49.615Z,17.48
2023-04-30T09:39:56.700Z,18.02
2023-04-30T09:40:53.921Z,17.97
2023-04-30T09:41:53.663Z,18.41
2023-04-30T09:43:00.411Z,19.06
2023-04-30T09:44:02.244Z,18.63
2023-04-30T09:45:01.404Z,19.02
2023-04-30T09:46:02.290Z,18.51
2023-04-30T09:46:59.609Z,19.38
2023-04-30T09:48:12.814Z,19.62
2023-04-30T09:49:15.886Z,17.55
2023-04-30T09:50:16.134Z,19.02
2023-04-30T09:51:14.010Z,19.73
2023-04-30T09:52:11.902Z,18.35
2023-04-30T09:53:16.912Z,19.02
2023-04-30T09:54:16.088Z,19.65
2023-04-30T09:55:12.889Z,18.99
2023-04-30T09:56:14.038Z,20.20
2023-04-30T09:57:16.521Z,20.38
2023-04-30T09:58:15.637Z,20.63
2023-04-30T09:59:14.740Z,20.47
2023-04-30T10:00:16.805Z,19.89
2023-04-30T10:01:13.703Z,19.37
2023-04-30T10:02:13.277Z,20.02
2023-04-30T10:03:14.837Z,19.79
2023-04-30T10:04:12.251Z,19.74
2023-04-30T10:05:11.783Z,19.34
2023-04-30T10:06:12.972Z,19.08
2023-04-30T10:07:20.076Z,18.90
2023-04-30T10:08:31.488Z,19.29
2023-04-30T10:09:36.759Z,18.58
2023-04-30T10:10:34.554Z,17.96
2023-04-30T10:11:38.591Z,18.05
2023-04-30T10:12:39.419Z,18.78
2023-04-30T10:13:52.544Z,17.30
2023-04-30T10:14:55.609Z,17.65
2023-04-30T10:16:07.569Z,17.91
2023-04-30T10:17:19.615Z,17.28
2023-04-30T10:18:28.558Z,16.42
2023-04-30T10:19:38.979Z,17.41
2023-04-30T10:20:41.159Z,16.27
2023-04-30T10:21:43.745Z,15.57
2023-04-30T10:22:47.290Z,16.38
2023-04-30T10:23:47.369Z,16.34
2023-04-30T10:24:47.613Z,15.57
2023-04-30T10:25:46.107Z,14.35
2023-04-30T10:26:47.063Z,16.28
2023-04-30T10:27:43.872Z,16.75
2023-04-30T10:28:44.716Z,15.42
2023-04-30T10:29:48.243Z,15.94
2023-04-30T10:30:45.023Z,14.92
2023-04-30T10:31:50.824Z,14.67
2023-04-30T10:33:25.726Z,16.70
2023-04-30T10:34:52.966Z,16.64
2023-04-30T10:36:12.223Z,15.45
2023-04-30T10:37:20.586Z,15.08
2023-04-30T10:38:37.955Z,17.10
2023-04-30T10:39:38.854Z,16.03
2023-04-30T10:40:38.822Z,16.41
2023-04-30T10:41:38.186Z,15.97
2023-04-30T10:42:38.717Z,16.67
2023-04-30T10:43:44.028Z,17.11
2023-04-30T10:44:40.891Z,16.17
2023-04-30T10:45:55.559Z,17.18
2023-04-30T10:47:04.508Z,17.39
2023-04-30T10:48:03.281Z,17.29
2023-04-30T10:49:03.553Z,16.18
2023-04-30T10:50:10.356Z,16.92
2023-04-30T10:51:13.449Z,17.78
2023-04-30T10:52:11.571Z,17.20
2023-04-30T10:53:15.738Z,17.23
2023-04-30T10:54:19.398Z,16.65
2023-04-30T10:55:23.387Z,17.49
2023-04-30T10:56:33.541Z,17.33
2023-04-30T10:57:30.776Z,16.74
2023-04-30T10:58:32.939Z,18.29
2023-04-30T10:59:29.794Z,18.24
2023-04-30T11:00:29.482Z,18.00
2023-04-30T11:01:27.051Z,18.73
2023-04-30T11:02:26.354Z,16.62
2023-04-30T11:03:23.172Z,18.24
2023-04-30T11:04:31.047Z,18.85
2023-04-30T11:05:41.229Z,18.70
2023-04-30T11:06:52.781Z,18.85
2023-04-30T11:07:58.445Z,18.39
2023-04-30T11:09:04.412Z,17.90
2023-04-30T11:10:08.833Z,18.45
2023-04-30T11:11:09.360Z,17.48
2023-04-30T11:12:20.030Z,17.42
2023-04-30T11:13:18.705Z,18.17
2023-04-30T11:14:23.592Z,18.60
2023-04-30T11:15:24.775Z,17.86
2023-04-30T11:16:36.966Z,18.75
2023-04-30T11:17:40.034Z,19.06
2023-04-30T11:18:47.452Z,19.17
2023-04-30T11:19:56.577Z,18.46
2023-04-30T11:21:01.941Z,19.29
2023-04-30T11:22:07.909Z,19.13
2023-04-30T11:23:25.281Z,19.44
2023-04-30T11:24:54.353Z,19.34
2023-04-30T11:25:54.875Z,17.64
2023-04-30T11:27:08.912Z,19.00
2023-04-30T11:28:05.957Z,18.05
2023-04-30T11:29:05.481Z,18.17
2023-04-30T11:30:11.757Z,18.63
2023-04-30T11:31:10.181Z,18.86
2023-04-30T11:32:07.716Z,18.93
2023-04-30T11:33:11.571Z,18.20
2023-04-30T11:34:13.080Z,18.34
2023-04-30T11:35:12.622Z,18.78
2023-04-30T11:36:09.692Z,18.40
2023-04-30T11:37:23.978Z,19.00
2023-04-30T11:38:29.154Z,18.70
2023-04-30T11:39:29.000Z,18.29
2023-04-30T11:40:27.060Z,17.95
2023-04-30T11:41:29.206Z,18.06
2023-04-30T11:42:26.423Z,19.40
2023-04-30T11:43:27.842Z,18.26
2023-04-30T11:44:28.354Z,19.01
2023-04-30T11:45:27.189Z,19.35
2023-04-30T11:46:24.188Z,19.24
2023-04-30T11:47:21.344Z,18.35
2023-04-30T11:48:18.402Z,19.69
2023-04-30T11:49:15.483Z,17.82
2023-04-30T11:50:17.269Z,19.50
2023-04-30T11:51:19.988Z,19.66
2023-04-30T11:52:21.579Z,19.44
2023-04-30T11:53:18.591Z,19.42
2023-04-30T11:54:16.159Z,18.89
2023-04-30T11:55:17.999Z,19.05
2023-04-30T11:56:23.522Z,18.09
2023-04-30T11:57:20.776Z,18.69
2023-04-30T11:58:17.800Z,18.48
2023-04-30T11:59:18.898Z,17.64
2023-04-30T12:00:18.455Z,18.47
2023-04-30T12:01:16.662Z,17.80
2023-04-30T12:02:17.164Z,18.58
2023-04-30T12:03:19.759Z,18.37
2023-04-30T12:04:18.309Z,19.08
2023-04-30T12:05:20.846Z,18.25
2023-04-30T12:06:24.998Z,18.90
2023-04-30T12:07:22.762Z,18.40
2023-04-30T12:08:24.929Z,18.46
2023-04-30T12:09:21.767Z,18.76
2023-04-30T12:10:22.789Z,18.51
2023-04-30T12:11:33.364Z,18.50
2023-04-30T12:12:30.690Z,17.93
2023-04-30T12:13:27.573Z,17.62
2023-04-30T12:14:25.401Z,18.08
2023-04-30T12:15:27.575Z,18.12
2023-04-30T12:16:25.657Z,18.21
2023-04-30T12:17:35.823Z,17.59
2023-04-30T12:18:33.279Z,17.53
2023-04-30T12:19:30.202Z,17.31
2023-04-30T12:20:31.316Z,18.37
2023-04-30T12:21:29.140Z,17.88
2023-04-30T12:22:29.114Z,15.80
2023-04-30T12:23:25.866Z,17.22
2023-04-30T12:24:30.395Z,16.86
2023-04-30T12:25:29.533Z,16.67
2023-04-30T12:26:41.661Z,18.04
2023-04-30T12:27:41.053Z,16.54
2023-04-30T12:28:37.806Z,17.75
2023-04-30T12:29:37.310Z,16.96
2023-04-30T12:30:36.365Z,15.83
2023-04-30T12:31:38.089Z,18.16
2023-04-30T12:32:43.955Z,18.45
2023-04-30T12:33:42.404Z,18.32
2023-04-30T12:34:39.972Z,18.32
2023-04-30T12:35:38.854Z,17.85
2023-04-30T12:36:39.104Z,17.63
2023-04-30T12:37:35.952Z,17.23
2023-04-30T12:38:34.614Z,16.70
2023-04-30T12:39:35.652Z,18.31
2023-04-30T12:40:33.463Z,18.01
2023-04-30T12:41:33.293Z,17.27
2023-04-30T12:42:34.541Z,17.95
2023-04-30T12:43:33.817Z,17.60
2023-04-30T12:44:30.614Z,18.27
2023-04-30T12:45:53.340Z,17.63
2023-04-30T12:46:59.078Z,15.82
2023-04-30T12:47:55.965Z,17.77